Amgil-li, South Korea

11:19 AM KST on March 27, 2017 (GMT +0900)
daebul | | Change Station

Elev 164 ft 34.77 °N, 126.42 °E | Updated 11 seconds ago

Partly Cloudy
Partly Cloudy
46.8 °F
Feels Like 41 °F
N
13.9
Wind Variable Wind from NW
Gusts 15.0 mph

Today
High -- | Low -- °F
--% Chance of Precip.
Yesterday
High -- | Low -- °F
Precip. -- in
Pressure 30.18 in
Visibility 2.8 miles
Clouds Scattered Clouds 3000 ft
Mostly Cloudy 12000 ft
Windchill 41 °F
Dew Point 39 °F
Humidity 73%
Rainfall 0.00 in
Snow Depth Not available.
6:27 AM 6:50 PM
Waning Crescent, 1% visible
METAR RKJB 270100Z 32009KT 4500 BR SCT030 BKN120 08/03 Q1022 NOSIG
Pressure 30.18 in
Visibility 2.8 miles
Clouds Scattered Clouds 3000 ft
Mostly Cloudy 12000 ft
Windchill 41 °F
Dew Point 39 °F
Humidity 73%
Rainfall 0.00 in
Snow Depth Not available.
6:27 AM 6:50 PM
Waning Crescent, 1% visible
METAR RKJB 270100Z 32009KT 4500 BR SCT030 BKN120 08/03 Q1022 NOSIG

Get Severe Weather Alerts

Thanks for signing up!

Be on the lookout for a verification email in your inbox.

You'll start receiving the daily forecast at 8 AM.

×

10-Day Weather Forecast

No radar image for this location.
×

Almanac

Astronomy

Mar. 27, 2017 Rise Set
Actual Time
Civil Twilight
Nautical Twilight
Astronomical Twilight
Moon
Length of Visible Light
Length of Day
Tomorrow will be .
, % of the Moon is Illuminated

Today's Extremes

Country Highs Country Lows

Community

WunderPhotos

Upload Photos

1,962,540 photos uploaded!

WunderBlog® & News

Nearby

Air Quality

  Air Quality AQ Index Pollutant
Not available.

Snow Depth

Station Depth Elevation

Earthquake Activity

City Distance Mag. Time & Date
Minimum magnitude displayed is 2.5.

Earthquake Activity

City Distance Mag. Time & Date
Minimum magnitude displayed is 2.5.

Coastal Water Temperatures

Place Temperature

Stations

Nearby Weather Stations

Station Location Temp. Windchill Dew Point Humidity Wind Precip. Elev Updated Type